sensor_id;sensor_type;location;lat;lon;timestamp;P1;durP1;ratioP1;P2;durP2;ratioP2
11829;SDS011;5972;42.134;24.718;2023-04-03T00:02:24;2.22;;;1.20;;
11829;SDS011;5972;42.134;24.718;2023-04-03T00:04:50;1.67;;;1.00;;
11829;SDS011;5972;42.134;24.718;2023-04-03T00:07:17;4.32;;;1.35;;
11829;SDS011;5972;42.134;24.718;2023-04-03T00:09:46;4.72;;;1.40;;
11829;SDS011;5972;42.134;24.718;2023-04-03T00:12:12;1.98;;;1.10;;
11829;SDS011;5972;42.134;24.718;2023-04-03T00:14:40;1.58;;;1.23;;
11829;SDS011;5972;42.134;24.718;2023-04-03T00:17:07;3.92;;;1.55;;
11829;SDS011;5972;42.134;24.718;2023-04-03T00:19:34;2.58;;;1.30;;
11829;SDS011;5972;42.134;24.718;2023-04-03T00:22:01;2.13;;;1.50;;
11829;SDS011;5972;42.134;24.718;2023-04-03T00:24:27;1.55;;;1.40;;
11829;SDS011;5972;42.134;24.718;2023-04-03T00:26:56;2.20;;;1.20;;
11829;SDS011;5972;42.134;24.718;2023-04-03T00:29:22;2.33;;;1.40;;
11829;SDS011;5972;42.134;24.718;2023-04-03T00:31:49;1.38;;;1.20;;
11829;SDS011;5972;42.134;24.718;2023-04-03T00:34:16;2.55;;;1.50;;
11829;SDS011;5972;42.134;24.718;2023-04-03T00:36:43;1.45;;;1.35;;
11829;SDS011;5972;42.134;24.718;2023-04-03T00:39:09;1.60;;;1.27;;
11829;SDS011;5972;42.134;24.718;2023-04-03T00:41:36;1.80;;;1.60;;
11829;SDS011;5972;42.134;24.718;2023-04-03T00:46:59;2.08;;;1.60;;
11829;SDS011;5972;42.134;24.718;2023-04-03T00:49:26;2.00;;;1.40;;
11829;SDS011;5972;42.134;24.718;2023-04-03T00:51:54;1.48;;;1.30;;
11829;SDS011;5972;42.134;24.718;2023-04-03T00:54:22;2.15;;;1.42;;
11829;SDS011;5972;42.134;24.718;2023-04-03T00:56:50;3.63;;;1.60;;
11829;SDS011;5972;42.134;24.718;2023-04-03T00:59:18;2.17;;;1.38;;
11829;SDS011;5972;42.134;24.718;2023-04-03T01:01:50;1.70;;;1.25;;
11829;SDS011;5972;42.134;24.718;2023-04-03T01:04:27;1.83;;;1.50;;
11829;SDS011;5972;42.134;24.718;2023-04-03T01:06:56;1.83;;;1.40;;
11829;SDS011;5972;42.134;24.718;2023-04-03T01:09:25;1.70;;;1.30;;
11829;SDS011;5972;42.134;24.718;2023-04-03T01:11:52;1.45;;;1.35;;
11829;SDS011;5972;42.134;24.718;2023-04-03T01:14:19;1.30;;;1.20;;
11829;SDS011;5972;42.134;24.718;2023-04-03T01:16:51;2.13;;;1.50;;
11829;SDS011;5972;42.134;24.718;2023-04-03T01:19:19;2.75;;;1.42;;
11829;SDS011;5972;42.134;24.718;2023-04-03T01:24:37;3.13;;;1.50;;
11829;SDS011;5972;42.134;24.718;2023-04-03T01:27:05;1.58;;;1.40;;
11829;SDS011;5972;42.134;24.718;2023-04-03T01:29:34;2.20;;;1.70;;
11829;SDS011;5972;42.134;24.718;2023-04-03T01:32:03;1.95;;;1.42;;
11829;SDS011;5972;42.134;24.718;2023-04-03T01:34:30;2.25;;;1.52;;
11829;SDS011;5972;42.134;24.718;2023-04-03T01:36:57;1.98;;;1.50;;
11829;SDS011;5972;42.134;24.718;2023-04-03T01:39:24;1.40;;;1.30;;
11829;SDS011;5972;42.134;24.718;2023-04-03T01:41:51;1.70;;;1.60;;
11829;SDS011;5972;42.134;24.718;2023-04-03T01:44:18;2.13;;;1.40;;
11829;SDS011;5972;42.134;24.718;2023-04-03T01:46:45;2.00;;;1.38;;
11829;SDS011;5972;42.134;24.718;2023-04-03T01:49:13;5.72;;;1.65;;
11829;SDS011;5972;42.134;24.718;2023-04-03T01:51:40;1.40;;;1.30;;
11829;SDS011;5972;42.134;24.718;2023-04-03T01:54:06;2.88;;;1.55;;
11829;SDS011;5972;42.134;24.718;2023-04-03T01:56:33;1.90;;;1.40;;
11829;SDS011;5972;42.134;24.718;2023-04-03T01:59:00;1.83;;;1.50;;
11829;SDS011;5972;42.134;24.718;2023-04-03T02:01:26;1.63;;;1.52;;
11829;SDS011;5972;42.134;24.718;2023-04-03T02:03:53;3.75;;;1.30;;
11829;SDS011;5972;42.134;24.718;2023-04-03T02:06:21;2.55;;;1.50;;
11829;SDS011;5972;42.134;24.718;2023-04-03T02:08:48;2.20;;;1.45;;
11829;SDS011;5972;42.134;24.718;2023-04-03T02:11:15;3.05;;;1.65;;
11829;SDS011;5972;42.134;24.718;2023-04-03T02:13:42;2.15;;;1.70;;
11829;SDS011;5972;42.134;24.718;2023-04-03T02:16:09;3.40;;;2.45;;
11829;SDS011;5972;42.134;24.718;2023-04-03T02:18:37;3.72;;;2.53;;
11829;SDS011;5972;42.134;24.718;2023-04-03T02:21:04;5.88;;;2.60;;
11829;SDS011;5972;42.134;24.718;2023-04-03T02:23:32;4.93;;;2.72;;
11829;SDS011;5972;42.134;24.718;2023-04-03T02:26:07;4.82;;;2.55;;
11829;SDS011;5972;42.134;24.718;2023-04-03T02:28:36;2.85;;;2.17;;
11829;SDS011;5972;42.134;24.718;2023-04-03T02:31:04;4.45;;;2.63;;
11829;SDS011;5972;42.134;24.718;2023-04-03T02:33:32;3.97;;;2.22;;
11829;SDS011;5972;42.134;24.718;2023-04-03T02:36:00;5.38;;;2.10;;
11829;SDS011;5972;42.134;24.718;2023-04-03T02:38:26;4.18;;;2.30;;
11829;SDS011;5972;42.134;24.718;2023-04-03T02:40:57;3.28;;;2.35;;
11829;SDS011;5972;42.134;24.718;2023-04-03T02:43:26;5.10;;;2.65;;
11829;SDS011;5972;42.134;24.718;2023-04-03T02:45:53;3.42;;;2.40;;
11829;SDS011;5972;42.134;24.718;2023-04-03T02:48:20;3.63;;;2.35;;
11829;SDS011;5972;42.134;24.718;2023-04-03T02:50:47;6.50;;;2.20;;
11829;SDS011;5972;42.134;24.718;2023-04-03T02:53:14;7.40;;;2.38;;
11829;SDS011;5972;42.134;24.718;2023-04-03T02:55:41;2.55;;;2.00;;
11829;SDS011;5972;42.134;24.718;2023-04-03T02:58:09;3.95;;;2.30;;
11829;SDS011;5972;42.134;24.718;2023-04-03T03:00:36;2.67;;;2.10;;
11829;SDS011;5972;42.134;24.718;2023-04-03T03:03:03;4.35;;;2.28;;
11829;SDS011;5972;42.134;24.718;2023-04-03T03:05:30;3.88;;;2.38;;
11829;SDS011;5972;42.134;24.718;2023-04-03T03:07:57;5.50;;;2.45;;
11829;SDS011;5972;42.134;24.718;2023-04-03T03:10:24;7.53;;;2.70;;
11829;SDS011;5972;42.134;24.718;2023-04-03T03:12:51;5.57;;;2.78;;
11829;SDS011;5972;42.134;24.718;2023-04-03T03:15:19;2.97;;;2.45;;
11829;SDS011;5972;42.134;24.718;2023-04-03T03:17:45;8.60;;;3.38;;
11829;SDS011;5972;42.134;24.718;2023-04-03T03:20:12;9.18;;;3.78;;
11829;SDS011;5972;42.134;24.718;2023-04-03T03:22:40;13.95;;;3.95;;
11829;SDS011;5972;42.134;24.718;2023-04-03T03:25:07;11.60;;;4.25;;
11829;SDS011;5972;42.134;24.718;2023-04-03T03:27:35;12.23;;;5.18;;
11829;SDS011;5972;42.134;24.718;2023-04-03T03:30:02;14.00;;;4.65;;
11829;SDS011;5972;42.134;24.718;2023-04-03T03:32:30;12.55;;;4.50;;
11829;SDS011;5972;42.134;24.718;2023-04-03T03:34:57;14.23;;;4.47;;
11829;SDS011;5972;42.134;24.718;2023-04-03T03:37:24;11.65;;;4.22;;
11829;SDS011;5972;42.134;24.718;2023-04-03T03:39:52;7.93;;;3.78;;
11829;SDS011;5972;42.134;24.718;2023-04-03T03:42:18;7.38;;;4.20;;
11829;SDS011;5972;42.134;24.718;2023-04-03T03:44:45;12.68;;;5.63;;
11829;SDS011;5972;42.134;24.718;2023-04-03T03:47:12;8.70;;;4.68;;
11829;SDS011;5972;42.134;24.718;2023-04-03T03:49:40;8.48;;;4.20;;
11829;SDS011;5972;42.134;24.718;2023-04-03T03:52:07;10.32;;;3.80;;
11829;SDS011;5972;42.134;24.718;2023-04-03T03:54:35;7.88;;;4.07;;
11829;SDS011;5972;42.134;24.718;2023-04-03T03:57:02;11.10;;;4.03;;
11829;SDS011;5972;42.134;24.718;2023-04-03T03:59:29;14.52;;;4.32;;
11829;SDS011;5972;42.134;24.718;2023-04-03T04:01:56;13.80;;;3.40;;
11829;SDS011;5972;42.134;24.718;2023-04-03T04:04:23;6.00;;;3.15;;
11829;SDS011;5972;42.134;24.718;2023-04-03T04:06:51;9.32;;;3.33;;
11829;SDS011;5972;42.134;24.718;2023-04-03T04:09:17;13.23;;;4.20;;
11829;SDS011;5972;42.134;24.718;2023-04-03T04:11:44;5.78;;;3.70;;
11829;SDS011;5972;42.134;24.718;2023-04-03T04:14:11;8.35;;;3.25;;
11829;SDS011;5972;42.134;24.718;2023-04-03T04:16:38;13.70;;;3.87;;
11829;SDS011;5972;42.134;24.718;2023-04-03T04:19:05;9.30;;;3.15;;
11829;SDS011;5972;42.134;24.718;2023-04-03T04:21:32;6.57;;;3.50;;
11829;SDS011;5972;42.134;24.718;2023-04-03T04:24:00;6.13;;;3.03;;
11829;SDS011;5972;42.134;24.718;2023-04-03T04:26:27;7.30;;;2.97;;
11829;SDS011;5972;42.134;24.718;2023-04-03T04:28:53;9.25;;;2.80;;
11829;SDS011;5972;42.134;24.718;2023-04-03T04:31:20;12.18;;;3.50;;
11829;SDS011;5972;42.134;24.718;2023-04-03T04:33:47;8.32;;;2.97;;
11829;SDS011;5972;42.134;24.718;2023-04-03T04:36:14;10.93;;;3.20;;
11829;SDS011;5972;42.134;24.718;2023-04-03T04:38:41;4.50;;;2.83;;
11829;SDS011;5972;42.134;24.718;2023-04-03T04:41:09;10.55;;;3.00;;
11829;SDS011;5972;42.134;24.718;2023-04-03T04:43:36;6.78;;;3.38;;
11829;SDS011;5972;42.134;24.718;2023-04-03T04:46:03;13.85;;;3.25;;
11829;SDS011;5972;42.134;24.718;2023-04-03T04:48:31;11.00;;;4.05;;
11829;SDS011;5972;42.134;24.718;2023-04-03T04:50:58;5.93;;;3.03;;
11829;SDS011;5972;42.134;24.718;2023-04-03T04:53:24;7.15;;;3.70;;
11829;SDS011;5972;42.134;24.718;2023-04-03T04:55:51;7.18;;;3.72;;
11829;SDS011;5972;42.134;24.718;2023-04-03T04:58:20;9.50;;;3.85;;
11829;SDS011;5972;42.134;24.718;2023-04-03T05:00:47;13.90;;;3.83;;
11829;SDS011;5972;42.134;24.718;2023-04-03T05:03:14;6.00;;;3.45;;
11829;SDS011;5972;42.134;24.718;2023-04-03T05:05:41;6.57;;;3.83;;
11829;SDS011;5972;42.134;24.718;2023-04-03T05:08:08;7.05;;;4.35;;
11829;SDS011;5972;42.134;24.718;2023-04-03T05:10:34;8.02;;;4.28;;
11829;SDS011;5972;42.134;24.718;2023-04-03T05:13:01;10.73;;;4.63;;
11829;SDS011;5972;42.134;24.718;2023-04-03T05:15:29;8.18;;;4.22;;
11829;SDS011;5972;42.134;24.718;2023-04-03T05:17:56;12.73;;;4.60;;
11829;SDS011;5972;42.134;24.718;2023-04-03T05:20:23;8.35;;;4.30;;
11829;SDS011;5972;42.134;24.718;2023-04-03T05:22:49;13.70;;;4.43;;
11829;SDS011;5972;42.134;24.718;2023-04-03T05:25:16;17.17;;;5.22;;
11829;SDS011;5972;42.134;24.718;2023-04-03T05:27:43;9.70;;;5.22;;
11829;SDS011;5972;42.134;24.718;2023-04-03T05:30:10;15.45;;;6.13;;
11829;SDS011;5972;42.134;24.718;2023-04-03T05:32:39;17.50;;;5.70;;
11829;SDS011;5972;42.134;24.718;2023-04-03T05:35:06;13.98;;;5.28;;
11829;SDS011;5972;42.134;24.718;2023-04-03T05:37:33;9.07;;;4.00;;
11829;SDS011;5972;42.134;24.718;2023-04-03T05:40:00;12.10;;;4.13;;
11829;SDS011;5972;42.134;24.718;2023-04-03T05:42:28;8.27;;;3.42;;
11829;SDS011;5972;42.134;24.718;2023-04-03T05:44:55;7.40;;;3.90;;
11829;SDS011;5972;42.134;24.718;2023-04-03T05:47:21;12.23;;;4.18;;
11829;SDS011;5972;42.134;24.718;2023-04-03T05:49:50;13.80;;;3.80;;
11829;SDS011;5972;42.134;24.718;2023-04-03T05:52:18;13.30;;;4.32;;
11829;SDS011;5972;42.134;24.718;2023-04-03T05:54:49;8.05;;;3.88;;
11829;SDS011;5972;42.134;24.718;2023-04-03T05:57:16;5.72;;;3.83;;
11829;SDS011;5972;42.134;24.718;2023-04-03T05:59:43;6.57;;;3.70;;
11829;SDS011;5972;42.134;24.718;2023-04-03T06:02:10;12.65;;;3.97;;
11829;SDS011;5972;42.134;24.718;2023-04-03T06:04:38;7.50;;;4.18;;
11829;SDS011;5972;42.134;24.718;2023-04-03T06:07:08;6.75;;;3.63;;
11829;SDS011;5972;42.134;24.718;2023-04-03T06:09:37;7.55;;;4.47;;
11829;SDS011;5972;42.134;24.718;2023-04-03T06:12:05;12.07;;;4.35;;
11829;SDS011;5972;42.134;24.718;2023-04-03T06:14:31;7.22;;;3.55;;
11829;SDS011;5972;42.134;24.718;2023-04-03T06:16:58;8.95;;;4.13;;
11829;SDS011;5972;42.134;24.718;2023-04-03T06:19:26;7.32;;;3.85;;
11829;SDS011;5972;42.134;24.718;2023-04-03T06:21:53;9.77;;;6.80;;
11829;SDS011;5972;42.134;24.718;2023-04-03T06:24:21;5.10;;;3.78;;
11829;SDS011;5972;42.134;24.718;2023-04-03T06:26:50;10.20;;;3.40;;
11829;SDS011;5972;42.134;24.718;2023-04-03T06:29:17;5.65;;;3.22;;
11829;SDS011;5972;42.134;24.718;2023-04-03T06:31:44;5.03;;;2.80;;
11829;SDS011;5972;42.134;24.718;2023-04-03T06:34:12;4.00;;;2.80;;
11829;SDS011;5972;42.134;24.718;2023-04-03T06:36:39;5.38;;;3.00;;
11829;SDS011;5972;42.134;24.718;2023-04-03T06:39:06;5.88;;;2.75;;
11829;SDS011;5972;42.134;24.718;2023-04-03T06:41:36;3.40;;;2.58;;
11829;SDS011;5972;42.134;24.718;2023-04-03T06:44:03;5.93;;;3.28;;
11829;SDS011;5972;42.134;24.718;2023-04-03T06:46:30;5.15;;;3.33;;
11829;SDS011;5972;42.134;24.718;2023-04-03T06:48:56;5.97;;;3.10;;
11829;SDS011;5972;42.134;24.718;2023-04-03T06:51:24;7.45;;;3.42;;
11829;SDS011;5972;42.134;24.718;2023-04-03T06:53:53;6.95;;;3.10;;
11829;SDS011;5972;42.134;24.718;2023-04-03T06:56:21;14.23;;;4.25;;
11829;SDS011;5972;42.134;24.718;2023-04-03T06:58:50;8.35;;;5.00;;
11829;SDS011;5972;42.134;24.718;2023-04-03T07:01:19;8.57;;;3.78;;
11829;SDS011;5972;42.134;24.718;2023-04-03T07:03:47;5.45;;;3.33;;
11829;SDS011;5972;42.134;24.718;2023-04-03T07:06:14;3.30;;;3.00;;
11829;SDS011;5972;42.134;24.718;2023-04-03T07:08:42;7.05;;;3.40;;
11829;SDS011;5972;42.134;24.718;2023-04-03T07:11:10;7.70;;;3.67;;
11829;SDS011;5972;42.134;24.718;2023-04-03T07:13:38;7.00;;;3.20;;
11829;SDS011;5972;42.134;24.718;2023-04-03T07:16:07;8.18;;;3.13;;
11829;SDS011;5972;42.134;24.718;2023-04-03T07:18:35;11.75;;;3.47;;
11829;SDS011;5972;42.134;24.718;2023-04-03T07:21:02;9.82;;;3.25;;
11829;SDS011;5972;42.134;24.718;2023-04-03T07:23:30;4.75;;;3.60;;
11829;SDS011;5972;42.134;24.718;2023-04-03T07:25:57;9.70;;;3.28;;
11829;SDS011;5972;42.134;24.718;2023-04-03T07:28:24;6.15;;;2.80;;
11829;SDS011;5972;42.134;24.718;2023-04-03T07:30:52;5.82;;;3.10;;
11829;SDS011;5972;42.134;24.718;2023-04-03T07:33:26;6.88;;;3.05;;
11829;SDS011;5972;42.134;24.718;2023-04-03T07:35:53;6.70;;;2.80;;
11829;SDS011;5972;42.134;24.718;2023-04-03T07:38:20;8.32;;;3.38;;
11829;SDS011;5972;42.134;24.718;2023-04-03T07:40:47;2.90;;;2.50;;
11829;SDS011;5972;42.134;24.718;2023-04-03T07:43:15;4.28;;;2.60;;
11829;SDS011;5972;42.134;24.718;2023-04-03T07:45:43;4.85;;;2.70;;
11829;SDS011;5972;42.134;24.718;2023-04-03T07:48:10;3.85;;;2.38;;
11829;SDS011;5972;42.134;24.718;2023-04-03T07:50:39;5.22;;;3.08;;
11829;SDS011;5972;42.134;24.718;2023-04-03T07:53:06;4.57;;;2.30;;
11829;SDS011;5972;42.134;24.718;2023-04-03T07:55:33;4.10;;;2.53;;
11829;SDS011;5972;42.134;24.718;2023-04-03T07:58:02;6.93;;;2.90;;
11829;SDS011;5972;42.134;24.718;2023-04-03T08:00:29;5.03;;;2.33;;
11829;SDS011;5972;42.134;24.718;2023-04-03T08:02:56;4.90;;;2.33;;
11829;SDS011;5972;42.134;24.718;2023-04-03T08:05:23;2.25;;;2.13;;
11829;SDS011;5972;42.134;24.718;2023-04-03T08:07:51;2.83;;;2.22;;
11829;SDS011;5972;42.134;24.718;2023-04-03T08:10:18;2.35;;;2.00;;
11829;SDS011;5972;42.134;24.718;2023-04-03T08:12:45;3.35;;;2.10;;
11829;SDS011;5972;42.134;24.718;2023-04-03T08:15:13;2.58;;;2.20;;
11829;SDS011;5972;42.134;24.718;2023-04-03T08:17:39;2.90;;;2.42;;
11829;SDS011;5972;42.134;24.718;2023-04-03T08:20:07;4.85;;;2.47;;
11829;SDS011;5972;42.134;24.718;2023-04-03T08:22:36;8.00;;;2.50;;
11829;SDS011;5972;42.134;24.718;2023-04-03T08:25:04;4.65;;;2.40;;
11829;SDS011;5972;42.134;24.718;2023-04-03T08:27:31;4.30;;;2.53;;
11829;SDS011;5972;42.134;24.718;2023-04-03T08:29:58;4.07;;;2.80;;
11829;SDS011;5972;42.134;24.718;2023-04-03T08:32:25;4.00;;;3.03;;
11829;SDS011;5972;42.134;24.718;2023-04-03T08:34:52;6.00;;;2.95;;
11829;SDS011;5972;42.134;24.718;2023-04-03T08:37:19;11.82;;;3.72;;
11829;SDS011;5972;42.134;24.718;2023-04-03T08:39:46;6.40;;;3.25;;
11829;SDS011;5972;42.134;24.718;2023-04-03T08:42:16;5.53;;;3.13;;
11829;SDS011;5972;42.134;24.718;2023-04-03T08:44:57;10.25;;;4.55;;
11829;SDS011;5972;42.134;24.718;2023-04-03T08:47:28;6.93;;;3.90;;
11829;SDS011;5972;42.134;24.718;2023-04-03T08:50:05;7.95;;;3.30;;
11829;SDS011;5972;42.134;24.718;2023-04-03T08:52:37;7.85;;;3.60;;
11829;SDS011;5972;42.134;24.718;2023-04-03T08:55:13;11.48;;;4.55;;
11829;SDS011;5972;42.134;24.718;2023-04-03T08:57:50;9.77;;;4.40;;
11829;SDS011;5972;42.134;24.718;2023-04-03T09:00:22;5.22;;;3.47;;
11829;SDS011;5972;42.134;24.718;2023-04-03T09:02:52;7.40;;;3.30;;
11829;SDS011;5972;42.134;24.718;2023-04-03T09:05:20;5.25;;;3.10;;
11829;SDS011;5972;42.134;24.718;2023-04-03T09:08:01;10.45;;;3.58;;
11829;SDS011;5972;42.134;24.718;2023-04-03T09:10:34;8.65;;;3.30;;
11829;SDS011;5972;42.134;24.718;2023-04-03T09:13:06;7.35;;;3.45;;
11829;SDS011;5972;42.134;24.718;2023-04-03T09:15:39;5.68;;;3.45;;
11829;SDS011;5972;42.134;24.718;2023-04-03T09:18:10;5.40;;;3.45;;
11829;SDS011;5972;42.134;24.718;2023-04-03T09:20:43;7.40;;;3.03;;
11829;SDS011;5972;42.134;24.718;2023-04-03T09:23:18;7.97;;;3.40;;
11829;SDS011;5972;42.134;24.718;2023-04-03T09:25:49;11.32;;;3.50;;
11829;SDS011;5972;42.134;24.718;2023-04-03T09:28:20;6.47;;;3.05;;
11829;SDS011;5972;42.134;24.718;2023-04-03T09:30:47;10.23;;;3.50;;
11829;SDS011;5972;42.134;24.718;2023-04-03T09:33:14;14.52;;;3.42;;
11829;SDS011;5972;42.134;24.718;2023-04-03T09:35:43;8.00;;;3.42;;
11829;SDS011;5972;42.134;24.718;2023-04-03T09:38:20;6.85;;;2.95;;
11829;SDS011;5972;42.134;24.718;2023-04-03T09:40:48;5.03;;;3.10;;
11829;SDS011;5972;42.134;24.718;2023-04-03T09:43:22;7.05;;;2.90;;
11829;SDS011;5972;42.134;24.718;2023-04-03T09:45:54;5.40;;;2.40;;
11829;SDS011;5972;42.134;24.718;2023-04-03T09:48:22;12.40;;;2.85;;
11829;SDS011;5972;42.134;24.718;2023-04-03T09:50:54;3.35;;;2.55;;
11829;SDS011;5972;42.134;24.718;2023-04-03T09:53:28;10.38;;;2.60;;
11829;SDS011;5972;42.134;24.718;2023-04-03T09:55:58;3.83;;;1.95;;
11829;SDS011;5972;42.134;24.718;2023-04-03T09:58:27;4.72;;;2.15;;
11829;SDS011;5972;42.134;24.718;2023-04-03T10:00:56;2.55;;;2.22;;
11829;SDS011;5972;42.134;24.718;2023-04-03T10:03:25;7.13;;;2.30;;
11829;SDS011;5972;42.134;24.718;2023-04-03T10:05:55;3.38;;;2.10;;
11829;SDS011;5972;42.134;24.718;2023-04-03T10:08:24;2.65;;;2.28;;
11829;SDS011;5972;42.134;24.718;2023-04-03T10:11:09;3.78;;;2.28;;
11829;SDS011;5972;42.134;24.718;2023-04-03T10:13:53;6.13;;;2.75;;
11829;SDS011;5972;42.134;24.718;2023-04-03T10:16:24;3.78;;;2.25;;
11829;SDS011;5972;42.134;24.718;2023-04-03T10:18:57;4.47;;;2.20;;
11829;SDS011;5972;42.134;24.718;2023-04-03T10:21:43;10.73;;;8.38;;
11829;SDS011;5972;42.134;24.718;2023-04-03T10:24:17;20.27;;;18.55;;
11829;SDS011;5972;42.134;24.718;2023-04-03T10:26:52;5.15;;;3.60;;
11829;SDS011;5972;42.134;24.718;2023-04-03T10:32:32;5.47;;;2.55;;
11829;SDS011;5972;42.134;24.718;2023-04-03T10:35:12;8.50;;;3.40;;
11829;SDS011;5972;42.134;24.718;2023-04-03T10:37:50;5.82;;;3.05;;
11829;SDS011;5972;42.134;24.718;2023-04-03T10:40:29;5.03;;;2.90;;
11829;SDS011;5972;42.134;24.718;2023-04-03T10:43:02;2.97;;;2.53;;
11829;SDS011;5972;42.134;24.718;2023-04-03T10:45:51;5.72;;;2.95;;
11829;SDS011;5972;42.134;24.718;2023-04-03T10:48:26;11.13;;;2.90;;
11829;SDS011;5972;42.134;24.718;2023-04-03T10:51:08;4.05;;;3.17;;
11829;SDS011;5972;42.134;24.718;2023-04-03T10:53:48;7.70;;;6.90;;
11829;SDS011;5972;42.134;24.718;2023-04-03T10:56:24;15.82;;;11.80;;
11829;SDS011;5972;42.134;24.718;2023-04-03T10:58:58;4.95;;;2.97;;
11829;SDS011;5972;42.134;24.718;2023-04-03T11:01:34;6.40;;;2.67;;
11829;SDS011;5972;42.134;24.718;2023-04-03T11:04:05;5.63;;;3.17;;
11829;SDS011;5972;42.134;24.718;2023-04-03T11:06:34;3.58;;;2.72;;
11829;SDS011;5972;42.134;24.718;2023-04-03T11:09:05;4.43;;;3.20;;
11829;SDS011;5972;42.134;24.718;2023-04-03T11:11:42;9.30;;;3.30;;
11829;SDS011;5972;42.134;24.718;2023-04-03T11:14:09;4.13;;;3.60;;
11829;SDS011;5972;42.134;24.718;2023-04-03T11:16:43;4.88;;;3.08;;
11829;SDS011;5972;42.134;24.718;2023-04-03T11:19:14;5.65;;;3.30;;
11829;SDS011;5972;42.134;24.718;2023-04-03T11:21:50;5.18;;;3.97;;
11829;SDS011;5972;42.134;24.718;2023-04-03T11:24:22;5.15;;;3.53;;
11829;SDS011;5972;42.134;24.718;2023-04-03T11:26:51;7.40;;;3.65;;
11829;SDS011;5972;42.134;24.718;2023-04-03T11:29:21;9.95;;;5.30;;
11829;SDS011;5972;42.134;24.718;2023-04-03T11:34:45;6.18;;;4.68;;
11829;SDS011;5972;42.134;24.718;2023-04-03T11:37:16;5.85;;;3.30;;
11829;SDS011;5972;42.134;24.718;2023-04-03T11:39:53;5.47;;;3.40;;
11829;SDS011;5972;42.134;24.718;2023-04-03T11:42:24;5.50;;;4.53;;
11829;SDS011;5972;42.134;24.718;2023-04-03T11:47:51;6.07;;;4.40;;
11829;SDS011;5972;42.134;24.718;2023-04-03T11:50:39;4.32;;;3.83;;
11829;SDS011;5972;42.134;24.718;2023-04-03T11:53:32;4.95;;;3.38;;
11829;SDS011;5972;42.134;24.718;2023-04-03T11:59:16;5.63;;;3.33;;
11829;SDS011;5972;42.134;24.718;2023-04-03T12:01:51;6.25;;;3.72;;
11829;SDS011;5972;42.134;24.718;2023-04-03T12:04:20;2.72;;;2.53;;
11829;SDS011;5972;42.134;24.718;2023-04-03T12:12:42;4.60;;;3.17;;
11829;SDS011;5972;42.134;24.718;2023-04-03T12:15:37;3.22;;;2.92;;
11829;SDS011;5972;42.134;24.718;2023-04-03T12:21:19;4.85;;;3.75;;
11829;SDS011;5972;42.134;24.718;2023-04-03T12:24:01;5.43;;;3.88;;
11829;SDS011;5972;42.134;24.718;2023-04-03T12:26:35;7.35;;;4.25;;
11829;SDS011;5972;42.134;24.718;2023-04-03T12:29:10;6.22;;;4.32;;
11829;SDS011;5972;42.134;24.718;2023-04-03T12:31:45;6.50;;;4.68;;
11829;SDS011;5972;42.134;24.718;2023-04-03T12:34:25;6.85;;;5.07;;
11829;SDS011;5972;42.134;24.718;2023-04-03T12:37:09;9.20;;;5.53;;
11829;SDS011;5972;42.134;24.718;2023-04-03T12:39:55;9.05;;;5.13;;
11829;SDS011;5972;42.134;24.718;2023-04-03T12:42:55;8.70;;;5.47;;
11829;SDS011;5972;42.134;24.718;2023-04-03T12:45:38;7.63;;;5.43;;
11829;SDS011;5972;42.134;24.718;2023-04-03T12:48:12;7.72;;;5.93;;
11829;SDS011;5972;42.134;24.718;2023-04-03T12:50:42;8.82;;;6.47;;
11829;SDS011;5972;42.134;24.718;2023-04-03T12:53:13;8.07;;;6.32;;
11829;SDS011;5972;42.134;24.718;2023-04-03T12:55:44;13.15;;;9.90;;
11829;SDS011;5972;42.134;24.718;2023-04-03T12:58:21;7.25;;;5.10;;
11829;SDS011;5972;42.134;24.718;2023-04-03T13:00:58;8.52;;;5.65;;
11829;SDS011;5972;42.134;24.718;2023-04-03T13:03:27;7.88;;;5.22;;
11829;SDS011;5972;42.134;24.718;2023-04-03T13:05:55;7.18;;;4.88;;
11829;SDS011;5972;42.134;24.718;2023-04-03T13:08:26;8.35;;;5.13;;
11829;SDS011;5972;42.134;24.718;2023-04-03T13:10:56;5.80;;;5.05;;
11829;SDS011;5972;42.134;24.718;2023-04-03T13:13:25;9.02;;;4.90;;
11829;SDS011;5972;42.134;24.718;2023-04-03T13:15:53;7.80;;;4.82;;
11829;SDS011;5972;42.134;24.718;2023-04-03T13:18:30;7.57;;;5.07;;
11829;SDS011;5972;42.134;24.718;2023-04-03T13:20:59;6.65;;;4.30;;
11829;SDS011;5972;42.134;24.718;2023-04-03T13:23:31;6.22;;;4.60;;
11829;SDS011;5972;42.134;24.718;2023-04-03T13:26:01;7.20;;;4.90;;
11829;SDS011;5972;42.134;24.718;2023-04-03T13:28:29;7.68;;;4.80;;
11829;SDS011;5972;42.134;24.718;2023-04-03T13:31:03;5.75;;;5.03;;
11829;SDS011;5972;42.134;24.718;2023-04-03T13:33:35;7.30;;;5.38;;
11829;SDS011;5972;42.134;24.718;2023-04-03T13:36:05;8.60;;;5.35;;
11829;SDS011;5972;42.134;24.718;2023-04-03T13:38:39;10.85;;;5.38;;
11829;SDS011;5972;42.134;24.718;2023-04-03T13:41:23;9.23;;;5.72;;
11829;SDS011;5972;42.134;24.718;2023-04-03T13:43:51;7.60;;;5.80;;
11829;SDS011;5972;42.134;24.718;2023-04-03T13:46:24;8.43;;;5.45;;
11829;SDS011;5972;42.134;24.718;2023-04-03T13:48:54;7.35;;;5.82;;
11829;SDS011;5972;42.134;24.718;2023-04-03T13:51:23;6.47;;;5.32;;
11829;SDS011;5972;42.134;24.718;2023-04-03T13:53:54;7.10;;;6.05;;
11829;SDS011;5972;42.134;24.718;2023-04-03T13:56:25;8.38;;;6.13;;
11829;SDS011;5972;42.134;24.718;2023-04-03T13:58:57;10.02;;;6.68;;
11829;SDS011;5972;42.134;24.718;2023-04-03T14:01:33;10.07;;;7.25;;
11829;SDS011;5972;42.134;24.718;2023-04-03T14:04:12;10.30;;;6.80;;
11829;SDS011;5972;42.134;24.718;2023-04-03T14:06:42;8.25;;;7.00;;
11829;SDS011;5972;42.134;24.718;2023-04-03T14:09:10;11.00;;;8.57;;
11829;SDS011;5972;42.134;24.718;2023-04-03T14:11:37;11.63;;;7.95;;
11829;SDS011;5972;42.134;24.718;2023-04-03T14:14:06;10.10;;;8.50;;
11829;SDS011;5972;42.134;24.718;2023-04-03T14:16:40;9.60;;;7.72;;
11829;SDS011;5972;42.134;24.718;2023-04-03T14:19:14;9.38;;;7.93;;
11829;SDS011;5972;42.134;24.718;2023-04-03T14:21:45;9.45;;;8.18;;
11829;SDS011;5972;42.134;24.718;2023-04-03T14:24:14;8.98;;;8.07;;
11829;SDS011;5972;42.134;24.718;2023-04-03T14:26:41;8.30;;;7.38;;
11829;SDS011;5972;42.134;24.718;2023-04-03T14:29:09;9.63;;;8.27;;
11829;SDS011;5972;42.134;24.718;2023-04-03T14:31:37;11.27;;;8.00;;
11829;SDS011;5972;42.134;24.718;2023-04-03T14:34:05;10.35;;;7.38;;
11829;SDS011;5972;42.134;24.718;2023-04-03T14:36:32;13.70;;;8.43;;
11829;SDS011;5972;42.134;24.718;2023-04-03T14:38:59;9.35;;;8.00;;
11829;SDS011;5972;42.134;24.718;2023-04-03T14:41:28;12.90;;;8.00;;
11829;SDS011;5972;42.134;24.718;2023-04-03T14:43:55;14.85;;;10.52;;
11829;SDS011;5972;42.134;24.718;2023-04-03T14:46:24;13.23;;;9.13;;
11829;SDS011;5972;42.134;24.718;2023-04-03T14:48:54;14.63;;;9.88;;
11829;SDS011;5972;42.134;24.718;2023-04-03T14:51:21;13.02;;;9.05;;
11829;SDS011;5972;42.134;24.718;2023-04-03T14:53:48;11.85;;;9.32;;
11829;SDS011;5972;42.134;24.718;2023-04-03T14:56:16;11.93;;;9.70;;
11829;SDS011;5972;42.134;24.718;2023-04-03T14:58:48;11.35;;;9.05;;
11829;SDS011;5972;42.134;24.718;2023-04-03T15:01:16;13.70;;;8.82;;
11829;SDS011;5972;42.134;24.718;2023-04-03T15:03:42;10.27;;;8.25;;
11829;SDS011;5972;42.134;24.718;2023-04-03T15:06:09;9.10;;;8.00;;
11829;SDS011;5972;42.134;24.718;2023-04-03T15:08:37;9.93;;;7.80;;
11829;SDS011;5972;42.134;24.718;2023-04-03T15:11:06;10.88;;;8.57;;
11829;SDS011;5972;42.134;24.718;2023-04-03T15:13:33;12.48;;;8.85;;
11829;SDS011;5972;42.134;24.718;2023-04-03T15:16:01;14.07;;;9.05;;
11829;SDS011;5972;42.134;24.718;2023-04-03T15:18:31;11.70;;;8.80;;
11829;SDS011;5972;42.134;24.718;2023-04-03T15:21:02;10.70;;;9.07;;
11829;SDS011;5972;42.134;24.718;2023-04-03T15:23:29;13.65;;;9.32;;
11829;SDS011;5972;42.134;24.718;2023-04-03T15:25:55;13.45;;;9.68;;
11829;SDS011;5972;42.134;24.718;2023-04-03T15:28:25;15.77;;;11.02;;